Time;durP1;ratioP1;P1;durP2;ratioP2;P2;SDS_P1;SDS_P2;PMS_P1;PMS_P2;Temp;Humidity;BMP_temperature;BMP_pressure;BME280_temperature;BME280_humidity;BME280_pressure;Samples;Min_cycle;Max_cycle;Signal;HPM_P1;HPM_P2
2021/09/16 00:01:37;;;;;;;1.65;1.20;;;18.80;99.90;;;;;;5051581;28;20496;-75
2021/09/16 00:04:04;;;;;;;4.30;1.40;;;18.80;99.90;;;;;;5053203;28;20032;-75
2021/09/16 00:06:30;;;;;;;2.20;1.90;;;18.80;99.90;;;;;;5053008;28;20028;-75
2021/09/16 00:08:55;;;;;;;5.03;1.55;;;18.80;99.90;;;;;;5055407;28;20017;-75
2021/09/16 00:11:21;;;;;;;1.75;1.60;;;18.80;99.90;;;;;;5085357;28;20044;-77
2021/09/16 00:13:47;;;;;;;3.38;1.88;;;18.70;99.90;;;;;;5078586;28;20039;-77
2021/09/16 00:16:15;;;;;;;1.45;1.35;;;18.70;99.90;;;;;;5075202;28;20025;-79
2021/09/16 00:18:41;;;;;;;1.58;1.42;;;18.70;99.90;;;;;;5074634;28;20031;-78
2021/09/16 00:21:07;;;;;;;1.77;1.67;;;18.70;99.90;;;;;;5073037;28;20028;-78
2021/09/16 00:23:33;;;;;;;3.95;1.70;;;18.70;99.90;;;;;;5067961;28;20079;-78
2021/09/16 00:25:58;;;;;;;2.25;2.05;;;18.60;99.90;;;;;;5058113;28;20021;-78
2021/09/16 00:28:24;;;;;;;1.23;1.13;;;18.60;99.90;;;;;;5097991;28;20506;-78
2021/09/16 00:30:49;;;;;;;1.30;1.20;;;18.60;99.90;;;;;;5072004;28;20046;-78
2021/09/16 00:33:15;;;;;;;1.67;1.05;;;18.70;99.90;;;;;;5053102;28;20025;-76
2021/09/16 00:35:41;;;;;;;1.42;1.17;;;18.70;99.90;;;;;;5062659;28;20115;-77
2021/09/16 00:38:07;;;;;;;2.20;1.23;;;18.70;99.90;;;;;;5071469;28;20036;-78
2021/09/16 00:40:33;;;;;;;2.58;1.50;;;18.80;99.90;;;;;;5060000;28;20071;-78
2021/09/16 00:42:58;;;;;;;2.08;1.15;;;18.80;99.90;;;;;;5051342;28;20024;-77
2021/09/16 00:45:24;;;;;;;1.30;0.88;;;18.80;99.90;;;;;;5069235;28;20107;-78
2021/09/16 00:47:51;;;;;;;2.38;1.08;;;18.80;99.90;;;;;;5072098;28;20029;-77
2021/09/16 00:50:20;;;;;;;1.92;1.13;;;18.90;99.90;;;;;;5072051;28;20082;-77
2021/09/16 00:52:46;;;;;;;2.30;1.48;;;18.90;99.90;;;;;;5059817;28;20021;-77
2021/09/16 00:55:12;;;;;;;3.83;1.27;;;18.90;99.90;;;;;;5052190;28;20044;-77
2021/09/16 00:57:40;;;;;;;1.90;1.20;;;18.80;99.90;;;;;;5050882;28;20021;-77
2021/09/16 01:00:08;;;;;;;3.28;2.97;;;18.90;99.90;;;;;;5050489;28;20094;-78
2021/09/16 01:02:34;;;;;;;1.98;1.73;;;18.90;99.90;;;;;;5053115;28;20447;-77
2021/09/16 01:05:00;;;;;;;2.45;1.10;;;18.90;99.90;;;;;;5052339;28;20100;-77
2021/09/16 01:07:25;;;;;;;1.67;1.10;;;18.90;99.90;;;;;;5050783;28;20162;-78
2021/09/16 01:09:51;;;;;;;0.70;0.70;;;18.90;99.90;;;;;;5051456;28;20078;-77
2021/09/16 01:12:17;;;;;;;3.70;0.90;;;18.90;99.90;;;;;;5052781;28;20025;-77
2021/09/16 01:14:45;;;;;;;1.15;1.00;;;19.00;99.90;;;;;;5051933;28;20039;-76
2021/09/16 01:17:10;;;;;;;0.93;0.82;;;19.00;99.90;;;;;;5052034;28;20027;-77
2021/09/16 01:19:36;;;;;;;1.05;0.80;;;19.00;99.90;;;;;;5051734;28;20120;-77
2021/09/16 01:22:02;;;;;;;1.05;0.90;;;19.10;99.90;;;;;;5056189;28;20013;-77
2021/09/16 01:24:28;;;;;;;2.72;1.15;;;19.10;99.90;;;;;;5069003;28;20381;-77
2021/09/16 01:26:53;;;;;;;1.00;0.75;;;19.10;99.90;;;;;;5056675;28;20039;-78
2021/09/16 01:29:19;;;;;;;3.67;1.10;;;19.10;99.90;;;;;;5051217;28;20380;-79
2021/09/16 01:31:47;;;;;;;1.00;0.90;;;19.10;99.90;;;;;;5050600;28;20055;-76
2021/09/16 01:34:14;;;;;;;0.80;0.77;;;19.00;99.90;;;;;;5050441;28;20653;-77
2021/09/16 01:36:42;;;;;;;1.30;0.93;;;18.90;99.90;;;;;;5050549;28;20036;-78
2021/09/16 01:39:10;;;;;;;2.72;1.25;;;18.70;99.90;;;;;;5051810;28;20021;-77
2021/09/16 01:41:37;;;;;;;5.22;1.73;;;18.50;99.90;;;;;;5050726;28;20052;-78
2021/09/16 01:44:03;;;;;;;3.35;1.00;;;18.40;99.90;;;;;;5051840;28;20036;-77
2021/09/16 01:46:29;;;;;;;3.13;0.95;;;18.30;99.90;;;;;;5050208;28;20035;-77
2021/09/16 01:48:57;;;;;;;2.70;1.23;;;18.20;99.90;;;;;;5051668;28;20021;-76
2021/09/16 01:51:22;;;;;;;2.30;1.13;;;18.20;99.90;;;;;;5051523;28;20052;-78
2021/09/16 01:53:48;;;;;;;1.80;1.10;;;18.10;99.90;;;;;;5050404;28;20481;-77
2021/09/16 01:56:13;;;;;;;1.58;0.85;;;18.00;99.90;;;;;;5063613;28;20021;-76
2021/09/16 01:58:39;;;;;;;1.67;1.00;;;18.00;99.90;;;;;;5070828;28;20097;-77
2021/09/16 02:01:05;;;;;;;1.38;1.27;;;17.90;99.90;;;;;;5056138;28;20107;-78
2021/09/16 02:03:31;;;;;;;4.15;1.85;;;18.00;99.90;;;;;;5055663;28;20037;-77
2021/09/16 02:05:56;;;;;;;1.58;1.02;;;18.00;99.90;;;;;;5056478;28;20024;-77
2021/09/16 02:08:22;;;;;;;2.35;1.15;;;18.00;99.90;;;;;;5055196;28;20430;-77
2021/09/16 02:10:48;;;;;;;1.30;1.20;;;18.00;99.90;;;;;;5055031;28;20017;-77
2021/09/16 02:13:13;;;;;;;2.40;1.20;;;18.00;99.90;;;;;;5054960;28;20106;-77
2021/09/16 02:15:39;;;;;;;1.83;1.10;;;18.00;99.90;;;;;;5053854;28;20031;-77
2021/09/16 02:18:04;;;;;;;1.75;1.13;;;17.90;99.90;;;;;;5053633;28;20112;-77
2021/09/16 02:20:30;;;;;;;2.10;1.40;;;17.90;99.90;;;;;;5056876;28;20033;-79
2021/09/16 02:22:56;;;;;;;1.75;1.23;;;18.00;99.90;;;;;;5066459;28;20034;-78
2021/09/16 02:25:22;;;;;;;2.25;1.38;;;18.00;99.90;;;;;;5075129;28;20028;-78
2021/09/16 02:27:47;;;;;;;3.90;1.23;;;18.00;99.90;;;;;;5062967;28;20113;-78
2021/09/16 02:30:14;;;;;;;3.90;2.15;;;17.90;99.90;;;;;;5054087;28;20036;-79
2021/09/16 02:32:39;;;;;;;2.63;1.20;;;17.90;99.90;;;;;;5058500;28;20385;-77
2021/09/16 02:35:05;;;;;;;4.18;1.65;;;17.90;99.90;;;;;;5076329;28;20028;-77
2021/09/16 02:37:31;;;;;;;2.30;1.90;;;17.90;99.90;;;;;;5075081;28;20029;-78
2021/09/16 02:39:56;;;;;;;8.55;1.90;;;17.90;99.90;;;;;;5074041;28;20040;-76
2021/09/16 02:42:22;;;;;;;1.73;1.35;;;17.90;99.90;;;;;;5066840;28;20074;-78
2021/09/16 02:44:48;;;;;;;2.15;1.48;;;17.90;99.90;;;;;;5067592;28;20053;-76
2021/09/16 02:47:13;;;;;;;2.47;1.52;;;17.90;99.90;;;;;;5099441;28;20029;-76
2021/09/16 02:49:39;;;;;;;2.95;1.70;;;17.90;99.90;;;;;;5098814;28;20032;-77
2021/09/16 02:52:05;;;;;;;2.47;1.50;;;17.90;99.90;;;;;;5060379;28;20049;-77
2021/09/16 02:54:30;;;;;;;3.20;2.10;;;17.90;99.90;;;;;;5054853;28;20017;-78
2021/09/16 02:56:56;;;;;;;4.50;1.98;;;17.90;99.90;;;;;;5054216;28;20029;-78
2021/09/16 02:59:21;;;;;;;4.38;2.15;;;17.80;99.90;;;;;;5054346;28;20029;-77
2021/09/16 03:01:47;;;;;;;2.03;1.80;;;17.80;99.90;;;;;;5054098;28;20025;-78
2021/09/16 03:04:12;;;;;;;2.72;2.42;;;17.80;99.90;;;;;;5052951;28;20033;-77
2021/09/16 03:06:38;;;;;;;4.40;2.20;;;18.00;99.90;;;;;;5053998;28;20033;-78
2021/09/16 03:09:04;;;;;;;2.13;1.60;;;18.10;99.90;;;;;;5052352;28;20070;-77
2021/09/16 03:11:29;;;;;;;4.22;1.77;;;18.00;99.90;;;;;;5052731;28;20029;-77
2021/09/16 03:13:55;;;;;;;2.92;1.67;;;17.90;99.90;;;;;;5052692;28;20028;-77
2021/09/16 03:16:20;;;;;;;4.18;2.13;;;17.90;99.90;;;;;;5052669;28;20058;-77
2021/09/16 03:18:46;;;;;;;2.38;1.77;;;17.80;99.90;;;;;;5052485;28;20550;-78
2021/09/16 03:21:12;;;;;;;2.00;1.80;;;17.80;99.90;;;;;;5060268;28;20031;-78
2021/09/16 03:23:37;;;;;;;3.13;1.80;;;17.80;99.90;;;;;;5064278;28;20416;-77
2021/09/16 03:26:03;;;;;;;2.45;1.65;;;17.80;99.90;;;;;;5073648;28;20450;-77
2021/09/16 03:28:28;;;;;;;5.40;3.42;;;17.80;99.90;;;;;;5057222;28;20111;-77
2021/09/16 03:30:54;;;;;;;2.17;1.83;;;17.80;99.90;;;;;;5053200;28;20029;-77
2021/09/16 03:33:19;;;;;;;2.17;1.70;;;17.80;99.90;;;;;;5051945;28;20031;-78
2021/09/16 03:35:45;;;;;;;3.17;1.67;;;17.80;99.90;;;;;;5053597;28;20029;-77
2021/09/16 03:38:11;;;;;;;2.70;1.83;;;17.90;99.90;;;;;;5052280;28;20454;-77
2021/09/16 03:40:36;;;;;;;2.30;1.70;;;17.90;99.90;;;;;;5054176;28;20033;-77
2021/09/16 03:43:02;;;;;;;2.80;2.05;;;17.90;99.90;;;;;;5071791;28;20092;-75
2021/09/16 03:45:27;;;;;;;2.20;1.80;;;17.80;99.90;;;;;;5076414;28;20047;-78
2021/09/16 03:47:53;;;;;;;3.58;1.90;;;17.80;99.90;;;;;;5058477;28;20123;-77
2021/09/16 03:50:19;;;;;;;5.63;2.00;;;17.80;99.90;;;;;;5054241;28;20025;-77
2021/09/16 03:52:45;;;;;;;2.22;1.80;;;17.80;99.90;;;;;;5053516;28;20021;-77
2021/09/16 03:55:11;;;;;;;4.70;2.20;;;17.80;99.90;;;;;;5053197;28;20048;-78
2021/09/16 03:57:36;;;;;;;2.47;2.15;;;17.90;99.90;;;;;;5051842;28;20033;-77
2021/09/16 04:00:04;;;;;;;2.13;1.92;;;17.90;99.90;;;;;;5051370;28;20044;-77
2021/09/16 04:02:29;;;;;;;4.80;1.73;;;17.90;99.90;;;;;;5053615;28;20033;-76
2021/09/16 04:04:55;;;;;;;2.45;1.92;;;17.80;99.90;;;;;;5053174;28;20365;-77
2021/09/16 04:07:20;;;;;;;4.35;2.00;;;17.80;99.90;;;;;;5053638;28;20021;-77
2021/09/16 04:09:46;;;;;;;4.80;2.25;;;17.80;99.90;;;;;;5085213;28;20017;-76
2021/09/16 04:12:12;;;;;;;2.40;1.90;;;17.70;99.90;;;;;;5053364;28;20494;-76
2021/09/16 04:14:37;;;;;;;2.33;2.13;;;17.80;99.90;;;;;;5055192;28;20435;-76
2021/09/16 04:17:03;;;;;;;4.53;2.15;;;17.70;99.90;;;;;;5051384;28;20488;-77
2021/09/16 04:19:28;;;;;;;2.85;2.55;;;17.80;99.90;;;;;;5052608;28;20488;-76
2021/09/16 04:21:54;;;;;;;3.10;2.03;;;17.80;99.90;;;;;;5059938;28;20032;-76
2021/09/16 04:24:19;;;;;;;3.13;2.10;;;18.00;99.90;;;;;;5069891;28;20024;-76
2021/09/16 04:26:45;;;;;;;3.97;1.83;;;17.90;99.90;;;;;;5068748;28;20516;-77
2021/09/16 04:29:11;;;;;;;3.13;1.73;;;17.90;99.90;;;;;;5051226;28;20528;-76
2021/09/16 04:31:37;;;;;;;2.78;1.58;;;17.80;99.90;;;;;;5052231;28;20507;-77
2021/09/16 04:34:03;;;;;;;3.22;2.50;;;17.70;99.90;;;;;;5052362;28;20031;-77
2021/09/16 04:36:29;;;;;;;4.30;2.08;;;17.70;99.90;;;;;;5052343;28;20025;-76
2021/09/16 04:38:54;;;;;;;2.97;1.88;;;17.70;99.90;;;;;;5050799;28;20453;-78
2021/09/16 04:41:20;;;;;;;3.03;2.35;;;17.70;99.90;;;;;;5050942;28;20036;-77
2021/09/16 04:43:45;;;;;;;2.25;1.88;;;17.70;99.90;;;;;;5052848;28;20021;-76
2021/09/16 04:46:11;;;;;;;3.55;1.80;;;17.70;99.90;;;;;;5052063;28;20112;-76
2021/09/16 04:48:37;;;;;;;2.55;2.08;;;17.70;99.90;;;;;;5051908;28;20032;-77
2021/09/16 04:51:02;;;;;;;2.22;2.00;;;17.70;99.90;;;;;;5050701;28;20070;-76
2021/09/16 04:53:28;;;;;;;7.72;2.35;;;17.70;99.90;;;;;;5050630;28;20043;-76
2021/09/16 04:55:53;;;;;;;3.35;1.95;;;17.70;99.90;;;;;;5052056;28;20511;-76
2021/09/16 04:58:19;;;;;;;4.40;2.22;;;17.70;99.90;;;;;;5051520;28;20353;-77
2021/09/16 05:00:44;;;;;;;3.33;2.20;;;17.70;99.90;;;;;;5051466;28;20094;-77
2021/09/16 05:03:10;;;;;;;4.15;2.05;;;17.70;99.90;;;;;;5051833;28;20447;-77
2021/09/16 05:05:35;;;;;;;4.53;2.25;;;17.80;99.90;;;;;;5050982;28;20365;-77
2021/09/16 05:08:01;;;;;;;4.43;2.38;;;17.80;99.90;;;;;;5050427;28;20021;-79
2021/09/16 05:10:26;;;;;;;3.75;2.13;;;17.80;99.90;;;;;;5051579;28;20550;-77
2021/09/16 05:12:52;;;;;;;6.57;2.25;;;17.80;99.90;;;;;;5051674;28;20476;-77
2021/09/16 05:15:18;;;;;;;4.43;2.08;;;17.90;99.90;;;;;;5052205;28;20106;-77
2021/09/16 05:17:43;;;;;;;4.32;2.30;;;17.90;99.90;;;;;;5052490;28;20052;-77
2021/09/16 05:20:10;;;;;;;5.82;2.35;;;17.90;99.90;;;;;;5051490;28;20096;-77
2021/09/16 05:22:36;;;;;;;6.13;2.47;;;18.00;99.90;;;;;;5062767;28;20021;-76
2021/09/16 05:25:02;;;;;;;2.65;2.40;;;17.90;99.90;;;;;;5071718;28;20100;-76
2021/09/16 05:27:28;;;;;;;3.70;1.98;;;18.00;99.90;;;;;;5063543;28;20049;-77
2021/09/16 05:29:53;;;;;;;5.07;2.75;;;17.90;99.90;;;;;;5049969;28;20082;-76
2021/09/16 05:32:19;;;;;;;6.10;4.13;;;17.80;99.90;;;;;;5053631;28;20013;-77
2021/09/16 05:34:44;;;;;;;3.55;2.67;;;17.90;99.90;;;;;;5055554;28;20103;-75
2021/09/16 05:37:10;;;;;;;4.03;2.88;;;17.80;99.90;;;;;;5054233;28;20116;-77
2021/09/16 05:39:37;;;;;;;3.38;3.08;;;17.90;99.90;;;;;;5054311;28;20086;-79
2021/09/16 05:42:03;;;;;;;7.00;2.47;;;17.80;99.90;;;;;;5055766;28;20570;-76
2021/09/16 05:44:29;;;;;;;6.15;2.60;;;17.80;99.90;;;;;;5055431;28;20021;-77
2021/09/16 05:46:54;;;;;;;3.80;2.05;;;17.80;99.90;;;;;;5055627;28;20488;-77
2021/09/16 05:49:20;;;;;;;2.85;2.40;;;17.90;99.90;;;;;;5055788;28;20024;-77
2021/09/16 05:51:45;;;;;;;4.57;2.42;;;18.10;99.90;;;;;;5054094;28;20017;-77
2021/09/16 05:54:11;;;;;;;5.80;2.45;;;18.10;99.90;;;;;;5055452;28;20032;-76
2021/09/16 05:56:37;;;;;;;4.45;3.10;;;18.00;99.90;;;;;;5054101;28;20021;-76
2021/09/16 05:59:02;;;;;;;5.65;2.25;;;17.90;99.90;;;;;;5053903;28;20025;-78
2021/09/16 06:01:29;;;;;;;5.30;2.85;;;18.00;99.90;;;;;;5055379;28;20021;-75
2021/09/16 06:03:54;;;;;;;6.10;2.97;;;17.90;99.90;;;;;;5055013;28;20047;-76
2021/09/16 06:06:20;;;;;;;5.40;3.78;;;17.90;99.90;;;;;;5057674;28;20469;-76
2021/09/16 06:08:45;;;;;;;6.00;2.33;;;17.90;99.90;;;;;;5053831;28;20074;-77
2021/09/16 06:11:11;;;;;;;3.97;3.03;;;18.00;99.90;;;;;;5054742;28;20028;-76
2021/09/16 06:13:37;;;;;;;7.45;3.33;;;18.00;99.90;;;;;;5053588;28;20112;-77
2021/09/16 06:16:02;;;;;;;3.53;2.83;;;18.00;99.90;;;;;;5053793;28;20021;-76
2021/09/16 06:18:28;;;;;;;5.88;3.35;;;18.00;99.90;;;;;;5053915;28;20107;-76
2021/09/16 06:20:53;;;;;;;5.97;2.90;;;18.00;99.90;;;;;;5058628;28;20028;-77
2021/09/16 06:23:19;;;;;;;7.05;2.90;;;18.10;99.90;;;;;;5066843;28;20067;-78
2021/09/16 06:25:45;;;;;;;4.65;2.70;;;18.10;99.90;;;;;;5073567;28;20033;-77
2021/09/16 06:28:10;;;;;;;3.90;2.55;;;18.10;99.90;;;;;;5057611;28;20080;-77
2021/09/16 06:30:36;;;;;;;5.70;3.28;;;18.20;99.90;;;;;;5054738;28;20380;-77
2021/09/16 06:33:02;;;;;;;5.93;2.67;;;18.20;99.90;;;;;;5054694;28;20029;-76
2021/09/16 06:35:27;;;;;;;2.95;2.40;;;18.20;99.90;;;;;;5052870;28;20499;-77
2021/09/16 06:37:53;;;;;;;4.80;2.60;;;18.20;99.90;;;;;;5054438;28;20036;-76
2021/09/16 06:40:18;;;;;;;5.70;2.47;;;18.20;99.90;;;;;;5052789;28;20104;-78
2021/09/16 06:42:44;;;;;;;4.75;2.90;;;18.20;99.90;;;;;;5054532;28;20056;-77
2021/09/16 06:45:10;;;;;;;4.80;2.33;;;18.20;99.90;;;;;;5054040;28;20074;-77
2021/09/16 06:47:36;;;;;;;4.70;2.90;;;18.20;99.90;;;;;;5053130;28;20032;-78
2021/09/16 06:50:02;;;;;;;5.25;2.85;;;18.20;99.90;;;;;;5054413;28;20021;-79
2021/09/16 06:52:27;;;;;;;3.22;2.90;;;18.10;99.90;;;;;;5054400;28;20476;-77
2021/09/16 06:54:53;;;;;;;3.50;2.63;;;18.10;99.90;;;;;;5086729;28;20052;-77
2021/09/16 06:57:19;;;;;;;6.45;3.40;;;18.10;99.90;;;;;;5054577;28;20536;-77
2021/09/16 06:59:44;;;;;;;6.95;2.95;;;18.10;99.90;;;;;;5086573;28;20721;-77
2021/09/16 07:02:11;;;;;;;5.40;3.08;;;18.10;99.90;;;;;;5054081;28;20064;-77
2021/09/16 07:04:37;;;;;;;6.78;2.90;;;18.10;99.90;;;;;;5052822;28;20029;-77
2021/09/16 07:07:06;;;;;;;3.92;2.75;;;18.20;99.90;;;;;;5054390;28;20538;-77
2021/09/16 07:09:35;;;;;;;4.82;2.75;;;18.20;99.90;;;;;;5059032;28;20029;-75
2021/09/16 07:12:01;;;;;;;5.22;3.90;;;18.20;99.90;;;;;;5067038;28;20510;-77
2021/09/16 07:14:29;;;;;;;5.05;3.42;;;18.30;99.90;;;;;;5053873;28;20053;-76
2021/09/16 07:16:56;;;;;;;8.63;4.47;;;18.50;99.90;;;;;;5049825;28;20021;-75
2021/09/16 07:19:21;;;;;;;4.00;2.97;;;18.50;99.90;;;;;;5051554;28;20050;-75
2021/09/16 07:21:47;;;;;;;4.43;3.20;;;18.50;99.90;;;;;;5053800;28;20147;-78
2021/09/16 07:24:14;;;;;;;4.40;2.83;;;18.40;99.90;;;;;;5053346;28;20085;-77
2021/09/16 07:26:40;;;;;;;8.68;4.00;;;18.40;99.90;;;;;;5052147;28;20465;-76
2021/09/16 07:29:06;;;;;;;7.10;2.80;;;18.30;99.90;;;;;;5053888;28;20048;-77
2021/09/16 07:31:31;;;;;;;4.68;3.80;;;18.30;99.90;;;;;;5069540;28;20024;-76
2021/09/16 07:33:57;;;;;;;3.90;3.00;;;18.30;99.90;;;;;;5071897;28;20111;-75
2021/09/16 07:36:23;;;;;;;5.93;2.85;;;18.30;99.90;;;;;;5033323;28;20121;-77
2021/09/16 07:38:49;;;;;;;4.75;2.75;;;18.30;99.90;;;;;;5034110;28;20373;-77
2021/09/16 07:41:15;;;;;;;8.07;4.70;;;18.20;99.90;;;;;;5033447;28;20026;-76
2021/09/16 07:43:41;;;;;;;7.30;6.38;;;18.20;99.90;;;;;;5041145;28;20037;-78
2021/09/16 07:46:06;;;;;;;9.05;7.38;;;18.10;99.90;;;;;;5061343;28;20029;-77
2021/09/16 07:48:32;;;;;;;12.52;8.80;;;18.00;99.90;;;;;;5071692;28;20021;-78
2021/09/16 07:50:58;;;;;;;10.80;8.98;;;18.00;99.90;;;;;;5066913;28;20025;-77
2021/09/16 07:53:24;;;;;;;9.90;8.25;;;18.00;99.90;;;;;;5053239;28;20029;-78
2021/09/16 07:55:49;;;;;;;8.10;7.28;;;17.90;99.90;;;;;;5050277;28;20083;-76
2021/09/16 07:58:15;;;;;;;9.63;7.90;;;17.80;99.90;;;;;;5057557;28;20119;-76
2021/09/16 08:00:40;;;;;;;11.02;8.50;;;17.70;99.90;;;;;;5068087;28;20031;-77
2021/09/16 08:03:06;;;;;;;9.40;7.22;;;17.70;99.90;;;;;;5070751;28;20021;-76
2021/09/16 08:05:32;;;;;;;8.00;7.30;;;17.70;99.90;;;;;;5051717;28;20032;-77
2021/09/16 08:07:57;;;;;;;7.85;7.10;;;17.70;99.90;;;;;;5050676;28;20094;-77
2021/09/16 08:10:23;;;;;;;7.63;6.93;;;17.70;99.90;;;;;;5061929;28;20028;-77
2021/09/16 08:12:50;;;;;;;7.53;6.78;;;17.60;99.90;;;;;;5068142;28;20024;-76
2021/09/16 08:15:16;;;;;;;6.90;6.20;;;17.60;99.90;;;;;;5054163;28;20032;-77
2021/09/16 08:17:41;;;;;;;7.25;6.55;;;17.60;99.90;;;;;;5064134;28;20488;-76
2021/09/16 08:20:08;;;;;;;5.55;5.05;;;17.60;99.90;;;;;;5059298;28;20044;-76
2021/09/16 08:22:35;;;;;;;8.55;5.28;;;17.60;99.90;;;;;;5057704;28;20086;-75
2021/09/16 08:25:01;;;;;;;5.22;3.97;;;17.60;99.90;;;;;;5059512;28;20111;-74
2021/09/16 08:27:26;;;;;;;4.35;3.80;;;17.60;99.90;;;;;;5055120;28;20121;-75
2021/09/16 08:29:52;;;;;;;3.28;2.97;;;17.70;99.90;;;;;;5051758;28;20598;-75
2021/09/16 08:32:18;;;;;;;4.72;3.00;;;17.70;99.90;;;;;;5052491;28;20027;-74
2021/09/16 08:34:44;;;;;;;2.53;2.33;;;17.80;99.90;;;;;;5052294;28;20025;-77
2021/09/16 08:37:11;;;;;;;4.00;2.90;;;17.80;99.90;;;;;;5052344;28;20040;-74
2021/09/16 08:39:36;;;;;;;2.13;1.90;;;17.90;99.90;;;;;;5052243;28;20032;-75
2021/09/16 08:42:02;;;;;;;2.50;2.22;;;17.80;99.90;;;;;;5048321;28;20021;-76
2021/09/16 08:44:28;;;;;;;2.20;1.40;;;17.90;99.90;;;;;;5032442;28;20371;-75
2021/09/16 08:46:54;;;;;;;2.45;1.50;;;17.90;99.90;;;;;;5033288;28;20032;-74
2021/09/16 08:49:19;;;;;;;3.92;2.17;;;18.00;99.90;;;;;;5032530;28;20021;-74
2021/09/16 08:51:45;;;;;;;1.67;1.58;;;17.90;99.90;;;;;;5032632;28;20021;-75
2021/09/16 08:54:11;;;;;;;2.15;1.85;;;17.70;99.90;;;;;;5032316;28;20033;-74
2021/09/16 08:56:44;;;;;;;4.22;3.42;;;17.70;99.90;;;;;;5030968;28;20033;-75
2021/09/16 08:59:10;;;;;;;3.17;2.88;;;17.60;99.90;;;;;;5032135;28;20033;-75
2021/09/16 09:01:36;;;;;;;5.50;3.55;;;17.60;99.90;;;;;;5030778;28;20030;-75
2021/09/16 09:04:02;;;;;;;3.58;3.28;;;17.60;99.90;;;;;;5030736;28;20036;-76
2021/09/16 09:06:34;;;;;;;3.85;3.55;;;17.70;99.90;;;;;;5030426;28;20029;-75
2021/09/16 09:09:19;;;;;;;4.03;3.72;;;17.60;99.90;;;;;;5030795;28;20030;-75
2021/09/16 09:11:58;;;;;;;5.50;5.10;;;17.50;99.90;;;;;;5032067;28;20076;-75
2021/09/16 09:14:26;;;;;;;6.88;6.13;;;17.40;99.90;;;;;;5049274;28;20033;-74
2021/09/16 09:16:52;;;;;;;7.78;5.82;;;17.40;99.90;;;;;;5065801;28;20029;-75
2021/09/16 09:19:20;;;;;;;6.90;6.20;;;17.40;99.90;;;;;;5067347;28;20033;-77
2021/09/16 09:21:47;;;;;;;7.82;6.93;;;17.30;99.90;;;;;;5058039;28;20028;-75
2021/09/16 09:24:26;;;;;;;8.60;7.07;;;17.30;99.90;;;;;;5063918;28;20029;-75
2021/09/16 09:26:52;;;;;;;8.13;7.32;;;17.10;99.90;;;;;;5059560;28;20033;-74
2021/09/16 09:29:19;;;;;;;7.93;7.15;;;17.20;99.90;;;;;;5062635;28;20044;-75
2021/09/16 09:32:08;;;;;;;8.18;7.38;;;17.50;99.90;;;;;;5070149;28;20545;-75
2021/09/16 09:34:36;;;;;;;8.00;7.20;;;17.50;99.90;;;;;;5052808;28;20027;-79
2021/09/16 09:37:15;;;;;;;11.52;7.50;;;17.40;99.90;;;;;;5066600;28;20021;-79
2021/09/16 09:39:42;;;;;;;8.13;6.10;;;17.40;99.90;;;;;;5036946;28;20029;-79
2021/09/16 09:42:14;;;;;;;7.07;6.38;;;17.40;99.90;;;;;;5053243;28;20096;-79
2021/09/16 09:44:39;;;;;;;7.05;5.50;;;17.50;99.90;;;;;;5058682;28;20029;-79
2021/09/16 09:47:05;;;;;;;4.55;4.15;;;17.60;99.90;;;;;;5056408;28;20150;-78
2021/09/16 09:49:34;;;;;;;4.25;3.85;;;17.50;99.90;;;;;;5060184;28;20480;-79
2021/09/16 09:52:01;;;;;;;4.38;3.88;;;17.40;99.90;;;;;;5057640;28;20017;-79
2021/09/16 09:54:35;;;;;;;4.03;3.72;;;17.40;99.90;;;;;;5058789;28;20427;-79
2021/09/16 09:57:16;;;;;;;4.72;4.32;;;17.40;99.90;;;;;;5055313;28;20025;-79
2021/09/16 10:00:07;;;;;;;4.90;4.50;;;17.30;99.90;;;;;;5053043;28;20028;-80
2021/09/16 10:02:38;;;;;;;;;;;17.20;99.90;;;;;;5054459;28;20312;-79
2021/09/16 10:05:17;;;;;;;7.07;6.38;;;17.10;99.90;;;;;;5053946;28;19915;-80
2021/09/16 10:07:43;;;;;;;6.85;6.00;;;17.10;99.90;;;;;;5051509;28;20030;-80
2021/09/16 10:10:11;;;;;;;7.57;6.88;;;17.10;99.90;;;;;;5055360;28;20025;-79
2021/09/16 10:12:38;;;;;;;7.47;6.78;;;17.10;99.90;;;;;;5056938;28;20048;-78
2021/09/16 10:15:09;;;;;;;11.10;8.07;;;17.10;99.90;;;;;;5060052;28;20206;-76
2021/09/16 10:17:35;;;;;;;8.13;7.32;;;17.00;99.90;;;;;;5064165;28;20053;-77
2021/09/16 10:20:01;;;;;;;8.50;7.72;;;16.90;99.90;;;;;;5072904;28;20251;-79
2021/09/16 10:22:27;;;;;;;9.35;8.43;;;17.00;99.90;;;;;;5058526;28;20481;-78
2021/09/16 10:24:54;;;;;;;9.13;7.03;;;17.00;99.90;;;;;;5065357;28;20025;-77
2021/09/16 10:27:39;;;;;;;7.07;6.38;;;16.90;99.90;;;;;;5077968;28;20021;-83
2021/09/16 10:30:22;;;;;;;7.93;7.22;;;16.90;99.90;;;;;;5061828;28;20082;-77
2021/09/16 10:33:23;;;;;;;7.63;6.88;;;17.00;99.90;;;;;;5059808;28;20057;-78
2021/09/16 10:35:58;;;;;;;8.73;7.85;;;17.00;99.90;;;;;;5054225;28;20582;-78
2021/09/16 10:38:45;;;;;;;8.23;7.43;;;16.90;99.90;;;;;;5059910;28;20033;-79
2021/09/16 10:41:29;;;;;;;9.23;7.93;;;16.90;99.90;;;;;;5059597;28;20032;-78
2021/09/16 10:43:58;;;;;;;10.52;8.20;;;16.90;99.90;;;;;;5057667;28;20028;-78
2021/09/16 10:46:27;;;;;;;9.18;8.23;;;17.00;99.90;;;;;;5060332;28;20047;-79
2021/09/16 10:48:54;;;;;;;9.77;8.80;;;17.10;99.90;;;;;;5057715;28;20036;-78
2021/09/16 10:51:42;;;;;;;11.30;9.23;;;17.10;99.90;;;;;;5058100;28;20021;-78
2021/09/16 10:54:22;;;;;;;14.48;9.98;;;17.10;99.90;;;;;;5061918;28;20028;-78
2021/09/16 10:57:26;;;;;;;10.98;9.95;;;17.20;99.90;;;;;;5061431;28;20025;-78
2021/09/16 10:59:52;;;;;;;10.00;9.00;;;17.30;99.90;;;;;;5061470;28;20044;-78
2021/09/16 11:02:20;;;;;;;12.98;10.43;;;17.30;99.90;;;;;;5059055;28;20473;-78
2021/09/16 11:04:54;;;;;;;11.23;9.30;;;17.30;99.90;;;;;;5062875;28;20095;-79
2021/09/16 11:07:32;;;;;;;10.52;9.50;;;17.50;99.90;;;;;;5055663;28;20175;-78
2021/09/16 11:10:24;;;;;;;10.15;9.13;;;17.50;99.90;;;;;;5056223;28;20100;-79
2021/09/16 11:12:55;;;;;;;10.82;9.48;;;17.70;99.90;;;;;;5059728;28;20017;-78
2021/09/16 11:15:36;;;;;;;9.65;8.75;;;17.70;99.90;;;;;;5056725;28;20076;-78
2021/09/16 11:18:06;;;;;;;10.02;8.82;;;17.80;99.90;;;;;;5057284;28;20025;-79
2021/09/16 11:20:34;;;;;;;9.68;8.65;;;17.60;99.90;;;;;;5055884;28;20033;-78
2021/09/16 11:22:59;;;;;;;10.10;9.00;;;17.40;99.90;;;;;;5059026;28;20078;-78
2021/09/16 11:25:25;;;;;;;11.05;9.23;;;17.30;99.90;;;;;;5060275;28;20029;-79
2021/09/16 11:27:57;;;;;;;10.02;9.02;;;17.30;99.90;;;;;;5062673;28;20287;-79
2021/09/16 11:30:23;;;;;;;11.00;9.25;;;17.20;99.90;;;;;;5061883;28;20037;-79
2021/09/16 11:32:49;;;;;;;10.73;9.63;;;17.30;99.90;;;;;;5058825;28;20119;-78
2021/09/16 11:35:20;;;;;;;13.52;9.13;;;17.30;99.90;;;;;;5060163;28;20080;-78
2021/09/16 11:37:50;;;;;;;;;;;17.20;99.90;;;;;;5061824;28;20025;-79
2021/09/16 11:40:28;;;;;;;12.18;9.80;;;17.30;99.90;;;;;;5061994;28;19905;-78
2021/09/16 11:43:02;;;;;;;11.27;10.18;;;17.40;99.90;;;;;;5061169;28;20107;-79
2021/09/16 11:45:46;;;;;;;13.52;9.95;;;17.40;99.90;;;;;;5061777;28;20017;-78
2021/09/16 11:48:22;;;;;;;11.85;9.25;;;17.60;99.90;;;;;;5062250;28;20040;-79
2021/09/16 11:50:56;;;;;;;11.15;10.05;;;17.60;99.90;;;;;;5063013;28;20023;-78
2021/09/16 11:53:24;;;;;;;10.32;9.18;;;17.90;99.90;;;;;;5061814;28;20307;-78
2021/09/16 11:55:57;;;;;;;13.68;8.85;;;18.20;99.90;;;;;;5067849;28;20400;-79
2021/09/16 11:58:33;;;;;;;13.88;9.77;;;18.30;99.90;;;;;;5075772;28;20115;-78
2021/09/16 12:01:01;;;;;;;10.50;9.40;;;18.40;99.90;;;;;;5074011;28;20020;-78
2021/09/16 12:03:29;;;;;;;10.60;9.60;;;18.40;99.90;;;;;;5074567;28;20487;-78
2021/09/16 12:06:01;;;;;;;11.02;9.93;;;18.10;99.90;;;;;;5074303;28;20024;-78
2021/09/16 12:08:29;;;;;;;14.90;9.80;;;18.00;99.90;;;;;;5080583;28;20036;-78
2021/09/16 12:10:59;;;;;;;10.43;9.43;;;18.00;99.90;;;;;;5076521;28;20403;-78
2021/09/16 12:13:38;;;;;;;15.87;10.60;;;18.10;99.90;;;;;;5074085;28;20021;-78
2021/09/16 12:16:20;;;;;;;12.13;10.93;;;18.00;99.90;;;;;;5076754;28;20047;-77
2021/09/16 12:18:57;;;;;;;15.48;11.85;;;17.80;99.90;;;;;;5076709;28;20036;-77
2021/09/16 12:21:28;;;;;;;14.77;11.50;;;17.80;99.90;;;;;;5074798;28;20043;-77
2021/09/16 12:23:55;;;;;;;14.45;12.25;;;17.80;99.90;;;;;;5076394;28;20388;-77
2021/09/16 12:26:23;;;;;;;16.30;13.23;;;17.90;99.90;;;;;;5080474;28;20035;-78
2021/09/16 12:29:16;;;;;;;14.85;12.63;;;18.10;99.90;;;;;;5062584;28;20048;-76
2021/09/16 12:31:46;;;;;;;14.43;12.23;;;17.90;99.90;;;;;;5043658;28;20029;-78
2021/09/16 12:34:17;;;;;;;13.32;11.98;;;17.90;99.90;;;;;;5053816;28;20029;-77
2021/09/16 12:36:57;;;;;;;14.75;12.10;;;17.80;99.90;;;;;;5053863;28;20083;-78
2021/09/16 12:39:26;;;;;;;14.48;13.10;;;18.00;99.90;;;;;;5053839;28;20032;-78
2021/09/16 12:41:55;;;;;;;14.25;12.32;;;17.90;99.90;;;;;;5053827;28;20025;-77
2021/09/16 12:44:24;;;;;;;16.10;14.30;;;17.90;99.90;;;;;;5054016;28;20447;-77
2021/09/16 12:47:07;;;;;;;18.95;13.75;;;17.90;99.90;;;;;;5053871;28;20029;-78
2021/09/16 12:49:38;;;;;;;13.82;12.38;;;18.00;99.90;;;;;;5057569;28;20021;-77